Time;durP1;ratioP1;P1;durP2;ratioP2;P2;SDS_P1;SDS_P2;PMS_P1;PMS_P2;Temp;Humidity;BMP_temperature;BMP_pressure;BME280_temperature;BME280_humidity;BME280_pressure;Samples;Min_cycle;Max_cycle;Signal;HPM_P1;HPM_P2
2021/08/14 00:00:27;;;;;;;11.95;4.13;;;21.90;99.90;;;22.42;68.65;101548.22;4975490;28;20192;-71
2021/08/14 00:02:54;;;;;;;10.45;4.15;;;21.80;99.90;;;22.37;68.66;101541.56;4975848;28;20562;-71
2021/08/14 00:05:21;;;;;;;10.07;4.20;;;21.80;99.90;;;22.34;68.19;101549.75;4975508;28;20224;-72
2021/08/14 00:07:47;;;;;;;10.85;4.47;;;21.80;99.90;;;22.32;67.74;101549.88;4974559;28;20199;-71
2021/08/14 00:10:14;;;;;;;10.65;4.50;;;21.70;99.90;;;22.29;67.39;101546.56;4975679;28;20226;-72
2021/08/14 00:12:43;;;;;;;13.43;4.85;;;21.70;99.90;;;22.24;67.53;101552.25;4974321;28;20223;-71
2021/08/14 00:15:11;;;;;;;12.82;4.88;;;21.70;99.90;;;22.21;67.23;101549.81;4975594;28;20582;-72
2021/08/14 00:17:38;;;;;;;11.63;4.53;;;21.70;99.90;;;22.17;66.87;101553.66;4974238;28;20204;-72
2021/08/14 00:20:07;;;;;;;12.65;4.40;;;21.60;99.90;;;22.15;66.64;101552.91;4974599;28;20250;-71
2021/08/14 00:22:34;;;;;;;8.93;3.80;;;21.60;99.90;;;22.11;66.22;101553.25;4974929;28;20219;-71
2021/08/14 00:25:00;;;;;;;9.30;3.65;;;21.50;99.90;;;22.05;66.20;101551.03;4977608;28;20188;-71
2021/08/14 00:27:27;;;;;;;9.63;4.30;;;21.50;99.90;;;22.00;66.28;101559.34;4977292;28;20188;-71
2021/08/14 00:29:55;;;;;;;12.38;4.40;;;21.40;99.90;;;21.97;65.78;101556.06;4977344;28;20274;-73
2021/08/14 00:32:22;;;;;;;15.15;7.47;;;21.50;99.90;;;21.94;66.08;101566.91;4973611;28;20226;-71
2021/08/14 00:34:49;;;;;;;11.07;5.15;;;21.40;99.90;;;21.92;65.83;101555.53;4974415;28;20695;-71
2021/08/14 00:37:15;;;;;;;10.02;3.80;;;21.40;99.90;;;21.90;65.92;101563.63;4975376;28;20191;-72
2021/08/14 00:39:42;;;;;;;10.38;3.70;;;21.40;99.90;;;21.88;65.84;101559.38;4973525;28;20192;-72
2021/08/14 00:42:09;;;;;;;10.63;4.20;;;21.30;99.90;;;21.83;65.65;101557.03;4975282;28;20211;-71
2021/08/14 00:44:36;;;;;;;9.93;3.88;;;21.30;99.90;;;21.81;65.85;101558.97;4973829;28;20207;-72
2021/08/14 00:47:06;;;;;;;9.20;4.13;;;21.30;99.90;;;21.78;65.91;101561.84;4973762;28;20215;-71
2021/08/14 00:49:33;;;;;;;10.85;4.05;;;21.30;99.90;;;21.74;66.05;101562.97;4973814;28;20204;-72
2021/08/14 00:52:00;;;;;;;11.70;3.85;;;21.20;99.90;;;21.73;65.99;101571.09;4974393;28;20218;-72
2021/08/14 00:54:27;;;;;;;11.40;3.83;;;21.20;99.90;;;21.70;66.44;101563.31;4974727;28;20683;-72
2021/08/14 00:56:56;;;;;;;9.63;3.80;;;21.20;99.90;;;21.68;66.60;101570.56;4973392;28;20200;-71
2021/08/14 00:59:25;;;;;;;10.88;3.88;;;21.10;99.90;;;21.62;66.74;101560.31;4973862;28;20195;-71
2021/08/14 01:01:52;;;;;;;10.23;4.15;;;21.10;99.90;;;21.58;66.75;101564.16;4973511;28;20219;-71
2021/08/14 01:04:22;;;;;;;12.18;4.00;;;21.10;99.90;;;21.54;67.04;101558.19;4974693;28;20191;-71
2021/08/14 01:06:49;;;;;;;9.98;4.40;;;21.00;99.90;;;21.48;67.14;101568.41;4974659;28;20220;-71
2021/08/14 01:09:16;;;;;;;10.00;3.72;;;20.90;99.90;;;21.44;67.55;101566.91;4974568;28;20187;-73
2021/08/14 01:11:43;;;;;;;9.20;3.72;;;20.90;99.90;;;21.39;67.44;101569.91;4974561;28;20218;-71
2021/08/14 01:14:13;;;;;;;10.70;4.10;;;20.90;99.90;;;21.34;67.83;101571.16;4974809;28;20213;-72
2021/08/14 01:16:40;;;;;;;10.43;3.97;;;20.80;99.90;;;21.29;67.90;101574.16;4975103;28;20562;-72
2021/08/14 01:19:08;;;;;;;10.85;3.78;;;20.80;99.90;;;21.24;68.20;101576.28;4975751;28;20187;-70
2021/08/14 01:21:36;;;;;;;10.70;4.20;;;20.70;99.90;;;21.19;68.75;101578.41;4974565;28;20230;-71
2021/08/14 01:24:05;;;;;;;13.10;4.38;;;20.60;99.90;;;21.12;68.51;101580.63;4973960;28;20195;-72
2021/08/14 01:26:32;;;;;;;13.45;5.50;;;20.60;99.90;;;21.08;68.80;101583.59;4976131;28;20226;-70
2021/08/14 01:29:01;;;;;;;12.30;4.57;;;20.60;99.90;;;21.07;68.64;101585.41;4975212;28;20200;-72
2021/08/14 01:31:27;;;;;;;10.45;4.78;;;20.50;99.90;;;21.06;69.05;101585.50;4976843;28;20222;-71
2021/08/14 01:33:56;;;;;;;11.10;4.00;;;20.50;99.90;;;21.03;69.30;101585.72;4986110;28;20176;-72
2021/08/14 01:36:23;;;;;;;25.45;14.43;;;20.50;99.90;;;20.99;69.36;101582.41;4992680;28;20260;-71
2021/08/14 01:38:53;;;;;;;13.20;4.65;;;20.40;99.90;;;20.95;69.58;101585.31;4984312;28;20613;-71
2021/08/14 01:41:22;;;;;;;11.27;3.95;;;20.40;99.90;;;20.89;70.09;101585.75;4976043;28;20211;-72
2021/08/14 01:43:55;;;;;;;11.77;4.53;;;20.40;99.90;;;20.85;69.99;101590.41;4972731;28;20259;-70
2021/08/14 01:46:25;;;;;;;10.88;4.43;;;20.30;99.90;;;20.82;70.04;101585.28;4973904;28;20207;-71
2021/08/14 01:48:52;;;;;;;10.50;4.10;;;20.30;99.90;;;20.79;70.13;101587.31;4973938;28;20183;-71
2021/08/14 01:51:19;;;;;;;9.77;3.85;;;20.20;99.90;;;20.75;70.65;101583.13;4973485;28;20211;-72
2021/08/14 01:53:48;;;;;;;10.95;4.32;;;20.20;99.90;;;20.71;70.82;101592.28;4973755;28;20184;-71
2021/08/14 01:56:16;;;;;;;9.77;3.90;;;20.20;99.90;;;20.70;70.79;101587.88;4973517;28;20542;-71
2021/08/14 01:58:42;;;;;;;10.43;4.10;;;20.10;99.90;;;20.68;70.84;101595.16;4972888;28;20195;-72
2021/08/14 02:01:09;;;;;;;10.80;3.85;;;20.10;99.90;;;20.66;70.85;101597.03;4973804;28;20218;-70
2021/08/14 02:03:39;;;;;;;8.77;3.80;;;20.10;99.90;;;20.64;71.12;101590.97;4973969;28;20191;-71
2021/08/14 02:06:07;;;;;;;11.18;3.95;;;20.10;99.90;;;20.60;71.54;101590.31;4973902;28;20218;-72
2021/08/14 02:08:34;;;;;;;9.57;3.75;;;20.00;99.90;;;20.57;71.34;101589.66;4974233;28;20188;-71
2021/08/14 02:11:02;;;;;;;10.02;4.00;;;20.00;99.90;;;20.55;71.68;101592.41;4973995;28;20199;-71
2021/08/14 02:13:30;;;;;;;11.50;3.70;;;19.90;99.90;;;20.54;71.76;101595.19;4973929;28;20195;-72
2021/08/14 02:15:57;;;;;;;11.82;4.00;;;19.90;99.90;;;20.53;71.66;101593.47;4974027;28;20656;-72
2021/08/14 02:18:24;;;;;;;11.07;4.32;;;19.90;99.90;;;20.52;71.87;101587.28;4975148;28;20184;-72
2021/08/14 02:20:52;;;;;;;11.05;4.10;;;19.90;99.90;;;20.50;71.96;101583.00;4982161;28;20203;-72
2021/08/14 02:23:19;;;;;;;10.35;4.25;;;19.90;99.90;;;20.51;71.92;101584.75;4982235;28;20206;-72
2021/08/14 02:25:46;;;;;;;9.40;3.60;;;19.90;99.90;;;20.48;71.62;101587.59;4980502;28;20275;-72
2021/08/14 02:28:13;;;;;;;10.45;3.85;;;19.90;99.90;;;20.47;71.73;101592.06;4981424;28;20199;-71
2021/08/14 02:30:40;;;;;;;11.40;3.75;;;19.90;99.90;;;20.47;71.97;101588.53;4974556;28;20203;-71
2021/08/14 02:33:06;;;;;;;12.77;4.15;;;19.90;99.90;;;20.45;71.64;101595.75;4975614;28;20207;-72
2021/08/14 02:35:33;;;;;;;13.45;3.95;;;19.90;99.90;;;20.44;71.83;101594.06;4977244;28;20195;-71
2021/08/14 02:38:01;;;;;;;11.75;3.85;;;19.90;99.90;;;20.44;72.03;101596.72;4977399;28;20270;-71
2021/08/14 02:40:28;;;;;;;11.52;3.92;;;19.90;99.90;;;20.48;71.73;101599.06;4987907;28;20186;-71
2021/08/14 02:42:55;;;;;;;14.80;4.32;;;19.90;99.90;;;20.48;71.84;101600.91;4993333;28;20214;-71
2021/08/14 02:45:22;;;;;;;10.90;4.55;;;19.90;99.90;;;20.48;71.84;101598.25;4995753;28;20268;-73
2021/08/14 02:47:48;;;;;;;11.00;4.03;;;19.90;99.90;;;20.46;72.01;101594.81;4996328;28;20199;-72
2021/08/14 02:50:15;;;;;;;10.95;3.95;;;19.90;99.90;;;20.46;71.81;101597.47;4996834;28;20180;-71
2021/08/14 02:52:42;;;;;;;11.90;4.30;;;19.90;99.90;;;20.48;71.98;101600.91;4996763;28;20242;-72
2021/08/14 02:55:11;;;;;;;12.77;3.78;;;19.90;99.90;;;20.49;71.93;101591.97;4998010;28;20167;-72
2021/08/14 02:57:37;;;;;;;9.57;3.70;;;19.90;99.90;;;20.48;71.50;101595.59;4998163;28;20171;-72
2021/08/14 03:00:06;;;;;;;10.05;3.72;;;19.90;99.90;;;20.47;71.74;101594.72;4998265;28;20195;-71
2021/08/14 03:02:33;;;;;;;11.20;3.80;;;19.90;99.90;;;20.49;71.40;101591.97;4997789;28;20266;-71
2021/08/14 03:05:00;;;;;;;11.48;3.85;;;19.90;99.90;;;20.48;71.38;101590.25;4997483;28;20185;-72
2021/08/14 03:07:27;;;;;;;9.63;3.65;;;19.90;99.90;;;20.45;71.06;101588.63;4996634;28;20203;-72
2021/08/14 03:09:53;;;;;;;9.98;4.07;;;19.90;99.90;;;20.41;70.96;101594.25;4997932;28;20176;-72
2021/08/14 03:12:21;;;;;;;14.48;4.25;;;19.90;99.90;;;20.41;71.39;101588.94;4996957;28;20222;-71
2021/08/14 03:14:48;;;;;;;11.32;4.25;;;19.90;99.90;;;20.39;71.30;101589.03;4994254;28;20205;-71
2021/08/14 03:17:15;;;;;;;9.02;3.38;;;19.90;99.90;;;20.39;71.44;101588.19;4991355;28;20199;-70
2021/08/14 03:19:42;;;;;;;13.85;3.90;;;19.80;99.90;;;20.39;70.92;101598.81;4986121;28;20199;-71
2021/08/14 03:22:09;;;;;;;9.80;3.40;;;19.80;99.90;;;20.35;71.23;101600.81;4978948;28;20262;-71
2021/08/14 03:24:35;;;;;;;11.73;3.60;;;19.80;99.90;;;20.35;70.67;101599.97;4977273;28;20200;-71
2021/08/14 03:27:02;;;;;;;8.77;3.28;;;19.80;99.90;;;20.32;70.82;101603.69;4977712;28;20215;-71
2021/08/14 03:29:30;;;;;;;11.38;3.55;;;19.80;99.90;;;20.31;70.96;101615.25;4976023;28;20210;-71
2021/08/14 03:31:57;;;;;;;10.45;3.33;;;19.80;99.90;;;20.30;70.64;101602.06;4976789;28;20214;-71
2021/08/14 03:34:24;;;;;;;13.10;3.70;;;19.80;99.90;;;20.28;70.67;101610.13;4976225;28;20202;-71
2021/08/14 03:36:52;;;;;;;13.30;3.78;;;19.70;99.90;;;20.24;70.68;101607.78;4976986;28;20212;-71
2021/08/14 03:39:19;;;;;;;9.07;3.30;;;19.70;99.90;;;20.20;70.91;101611.56;4976019;28;20679;-72
2021/08/14 03:41:46;;;;;;;12.07;3.70;;;19.70;99.90;;;20.18;70.59;101605.50;4977288;28;20208;-71
2021/08/14 03:44:13;;;;;;;11.38;3.40;;;19.70;99.90;;;20.15;70.72;101610.97;4977287;28;20307;-70
2021/08/14 03:46:41;;;;;;;10.73;3.45;;;19.60;99.90;;;20.13;70.77;101611.06;4977867;28;20607;-71
2021/08/14 03:49:07;;;;;;;15.32;3.67;;;19.60;99.90;;;20.11;71.42;101612.13;4983562;28;20247;-71
2021/08/14 03:51:34;;;;;;;14.57;3.60;;;19.60;99.90;;;20.12;71.21;101611.16;4977910;28;20216;-70
2021/08/14 03:54:01;;;;;;;13.23;3.78;;;19.60;99.90;;;20.11;71.11;101609.47;4976939;28;20279;-70
2021/08/14 03:56:28;;;;;;;12.75;3.90;;;19.60;99.90;;;20.09;71.27;101614.03;4977197;28;20195;-69
2021/08/14 03:58:55;;;;;;;11.63;3.70;;;19.60;99.90;;;20.08;71.60;101618.47;4977214;28;20192;-70
2021/08/14 04:01:21;;;;;;;10.98;3.60;;;19.60;99.90;;;20.05;71.25;101607.16;4976480;28;20286;-70
2021/08/14 04:03:49;;;;;;;11.88;3.55;;;19.60;99.90;;;20.04;71.53;101616.09;4976717;28;20187;-71
2021/08/14 04:06:16;;;;;;;14.18;3.72;;;19.50;99.90;;;20.06;71.31;101620.38;4975926;28;20192;-72
2021/08/14 04:08:43;;;;;;;11.02;3.35;;;19.50;99.90;;;20.02;71.34;101624.19;4975287;28;20192;-71
2021/08/14 04:11:10;;;;;;;10.52;3.33;;;19.50;99.90;;;20.00;71.18;101623.41;4975779;28;20241;-69
2021/08/14 04:13:37;;;;;;;11.05;3.53;;;19.50;99.90;;;19.99;71.29;101630.53;4976947;28;20198;-69
2021/08/14 04:16:04;;;;;;;9.95;3.20;;;19.50;99.90;;;19.98;71.74;101623.50;4976887;28;20602;-70
2021/08/14 04:18:31;;;;;;;12.98;3.90;;;19.50;99.90;;;19.98;71.77;101619.16;4975208;28;20207;-68
2021/08/14 04:20:59;;;;;;;10.57;3.17;;;19.50;99.90;;;19.95;71.52;101623.72;4976041;28;20194;-70
2021/08/14 04:23:26;;;;;;;12.10;3.72;;;19.50;99.90;;;19.92;71.72;101623.03;4974791;28;20306;-71
2021/08/14 04:25:53;;;;;;;14.52;3.78;;;19.50;99.90;;;19.90;71.91;101625.78;4976145;28;20214;-71
2021/08/14 04:28:19;;;;;;;14.00;3.78;;;19.40;99.90;;;19.89;71.89;101634.69;4975475;28;20302;-72
2021/08/14 04:30:46;;;;;;;13.38;3.50;;;19.40;99.90;;;19.90;71.82;101627.59;4975969;28;20240;-70
2021/08/14 04:33:13;;;;;;;11.80;3.35;;;19.40;99.90;;;19.90;71.79;101636.44;4976338;28;20184;-70
2021/08/14 04:35:40;;;;;;;10.23;3.58;;;19.40;99.90;;;19.90;71.78;101638.22;4974747;28;20191;-72
2021/08/14 04:38:08;;;;;;;13.82;3.78;;;19.40;99.90;;;19.88;72.17;101643.63;4975439;28;20188;-72
2021/08/14 04:40:34;;;;;;;10.88;3.50;;;19.40;99.90;;;19.87;72.13;101644.59;4975332;28;20188;-71
2021/08/14 04:43:01;;;;;;;10.57;3.40;;;19.40;99.90;;;19.87;72.32;101641.06;4973926;28;20211;-71
2021/08/14 04:45:28;;;;;;;11.13;3.63;;;19.30;99.90;;;19.89;72.47;101639.19;4975011;28;20672;-71
2021/08/14 04:47:55;;;;;;;10.82;3.45;;;19.40;99.90;;;19.90;72.23;101640.88;4973926;28;20282;-71
2021/08/14 04:50:22;;;;;;;10.02;3.40;;;19.40;99.90;;;19.91;72.14;101629.28;4973782;28;20586;-71
2021/08/14 04:52:48;;;;;;;12.70;3.53;;;19.40;99.90;;;19.91;71.95;101630.16;4973583;28;20215;-71
2021/08/14 04:55:16;;;;;;;12.90;3.08;;;19.40;99.90;;;19.91;71.92;101634.59;4975934;28;20187;-71
2021/08/14 04:57:43;;;;;;;9.95;3.35;;;19.40;99.90;;;19.92;71.96;101629.22;4992199;28;20198;-70
2021/08/14 05:00:11;;;;;;;10.57;3.25;;;19.40;99.90;;;19.93;71.62;101633.56;4993395;28;20196;-71
2021/08/14 05:02:38;;;;;;;11.63;3.53;;;19.40;99.90;;;19.93;71.79;101632.72;4984091;28;20211;-70
2021/08/14 05:05:07;;;;;;;10.57;3.55;;;19.40;99.90;;;19.93;72.13;101635.38;4973390;28;20204;-72
2021/08/14 05:07:35;;;;;;;10.75;3.47;;;19.40;99.90;;;19.92;71.76;101633.66;4972987;28;20222;-71
2021/08/14 05:10:02;;;;;;;13.10;3.65;;;19.40;99.90;;;19.88;72.14;101630.34;4973007;28;20294;-71
2021/08/14 05:12:31;;;;;;;9.32;3.33;;;19.40;99.90;;;19.86;72.50;101626.91;4972538;28;20227;-71
2021/08/14 05:14:58;;;;;;;11.43;3.70;;;19.40;99.90;;;19.86;72.58;101616.28;4974020;28;20262;-71
2021/08/14 05:17:24;;;;;;;11.88;4.00;;;19.40;99.90;;;19.88;72.53;101617.06;4974090;28;20191;-71
2021/08/14 05:19:51;;;;;;;11.98;3.63;;;19.40;99.90;;;19.89;71.95;101615.25;4974344;28;20192;-70
2021/08/14 05:22:18;;;;;;;11.55;3.63;;;19.40;99.90;;;19.89;72.02;101621.41;4972600;28;20695;-71
2021/08/14 05:24:45;;;;;;;10.95;3.20;;;19.40;99.90;;;19.89;72.06;101626.72;4973965;28;20180;-71
2021/08/14 05:27:11;;;;;;;10.52;3.70;;;19.40;99.90;;;19.94;72.10;101626.47;4974164;28;20218;-71
2021/08/14 05:29:40;;;;;;;10.60;3.83;;;19.50;99.90;;;19.99;71.94;101625.22;4973930;28;20599;-71
2021/08/14 05:32:08;;;;;;;12.02;3.83;;;19.50;99.90;;;20.05;72.32;101621.31;4972430;28;20265;-71
2021/08/14 05:34:34;;;;;;;10.45;3.20;;;19.60;99.90;;;20.11;71.85;101628.06;4978515;28;20200;-71
2021/08/14 05:37:01;;;;;;;13.52;3.67;;;19.60;99.90;;;20.14;71.53;101623.44;4976657;28;20559;-71
2021/08/14 05:39:28;;;;;;;11.35;3.50;;;19.60;99.90;;;20.17;71.29;101627.72;4974367;28;20187;-71
2021/08/14 05:41:55;;;;;;;15.27;3.75;;;19.70;99.90;;;20.18;71.24;101629.44;4973586;28;20253;-70
2021/08/14 05:44:22;;;;;;;13.65;3.67;;;19.70;99.90;;;20.17;71.16;101638.34;4973792;28;20667;-71
2021/08/14 05:46:51;;;;;;;12.13;3.38;;;19.70;99.90;;;20.17;71.19;101641.00;4972279;28;20198;-71
2021/08/14 05:49:17;;;;;;;11.23;3.60;;;19.70;99.90;;;20.17;70.99;101643.66;4973768;28;20195;-71
2021/08/14 05:51:44;;;;;;;12.57;3.75;;;19.70;99.90;;;20.19;70.99;101645.28;4972272;28;20230;-71
2021/08/14 05:54:11;;;;;;;12.30;3.20;;;19.70;99.90;;;20.22;71.30;101653.06;4973591;28;20655;-71
2021/08/14 05:56:38;;;;;;;11.50;3.70;;;19.80;99.90;;;20.29;70.91;101665.03;4973567;28;20187;-70
2021/08/14 05:59:05;;;;;;;15.02;3.50;;;19.80;99.90;;;20.32;70.64;101656.00;4973479;28;20604;-72
2021/08/14 06:01:32;;;;;;;13.77;3.22;;;19.90;99.90;;;20.33;70.51;101660.38;4971836;28;20233;-73
2021/08/14 06:04:00;;;;;;;10.73;3.53;;;19.90;99.90;;;20.37;70.33;101662.75;4973471;28;20183;-72
2021/08/14 06:06:27;;;;;;;11.55;3.60;;;19.90;99.90;;;20.43;70.21;101662.34;4972314;28;20196;-72
2021/08/14 06:08:54;;;;;;;9.95;3.33;;;20.00;99.90;;;20.52;70.08;101658.25;4974151;28;20219;-71
2021/08/14 06:11:21;;;;;;;13.45;3.47;;;20.10;99.90;;;20.62;69.67;101652.25;4972453;28;20223;-70
2021/08/14 06:13:48;;;;;;;10.63;3.20;;;20.20;99.90;;;20.65;69.35;101641.41;4973185;28;20257;-71
2021/08/14 06:16:15;;;;;;;10.80;3.45;;;20.20;99.90;;;20.64;69.48;101639.72;4973908;28;20200;-72
2021/08/14 06:18:42;;;;;;;11.98;3.50;;;20.30;99.90;;;20.67;69.41;101649.31;4973903;28;20192;-71
2021/08/14 06:21:11;;;;;;;9.48;3.50;;;20.30;99.90;;;20.72;69.27;101647.19;4973235;28;20258;-71
2021/08/14 06:23:38;;;;;;;10.45;2.97;;;20.30;99.90;;;20.78;68.86;101660.13;4972059;28;20219;-70
2021/08/14 06:26:05;;;;;;;10.82;3.33;;;20.40;99.90;;;20.81;68.99;101651.94;4973587;28;20250;-72
2021/08/14 06:28:32;;;;;;;12.52;3.67;;;20.50;99.90;;;20.81;69.10;101646.63;4973548;28;20219;-71
2021/08/14 06:30:59;;;;;;;10.23;3.47;;;20.50;99.90;;;20.83;68.99;101637.56;4972367;28;20660;-72
2021/08/14 06:33:25;;;;;;;11.35;4.13;;;20.50;99.90;;;20.85;68.85;101640.97;4972292;28;20577;-71
2021/08/14 06:35:52;;;;;;;10.50;3.80;;;20.50;99.90;;;20.87;68.85;101640.88;4973386;28;20199;-73
2021/08/14 06:38:20;;;;;;;11.95;3.80;;;20.50;99.90;;;20.87;68.78;101647.06;4973189;28;20589;-69
2021/08/14 06:40:47;;;;;;;9.55;3.25;;;20.50;99.90;;;20.85;69.00;101640.13;4973151;28;20187;-72
2021/08/14 06:43:14;;;;;;;13.80;3.95;;;20.50;99.90;;;20.84;68.72;101643.75;4973189;28;20187;-71
2021/08/14 06:45:41;;;;;;;10.80;3.50;;;20.50;99.90;;;20.85;68.72;101642.78;4971849;28;20196;-72
2021/08/14 06:48:08;;;;;;;11.52;3.50;;;20.60;99.90;;;20.88;69.08;101642.59;4973293;28;20207;-71
2021/08/14 06:50:35;;;;;;;11.48;3.30;;;20.60;99.90;;;20.94;68.70;101642.19;4973749;28;20198;-70
2021/08/14 06:53:02;;;;;;;10.57;3.50;;;20.70;99.90;;;21.01;68.44;101646.19;4976899;28;20235;-70
2021/08/14 06:55:30;;;;;;;11.40;3.13;;;20.70;99.90;;;21.04;68.73;101638.00;4975471;28;20192;-71
2021/08/14 06:57:57;;;;;;;11.85;3.78;;;20.80;99.90;;;21.03;68.43;101642.47;4976877;28;20199;-72
2021/08/14 07:00:23;;;;;;;12.65;3.42;;;20.80;99.90;;;21.05;68.43;101643.22;4976865;28;20203;-71
2021/08/14 07:02:50;;;;;;;11.65;3.25;;;20.80;99.90;;;21.03;68.65;101649.63;4975111;28;20688;-72
2021/08/14 07:05:17;;;;;;;12.27;3.72;;;20.80;99.90;;;21.01;68.26;101647.06;4976464;28;20191;-71
2021/08/14 07:07:44;;;;;;;9.43;3.17;;;20.80;99.90;;;21.03;68.37;101647.78;4975116;28;20216;-71
2021/08/14 07:10:12;;;;;;;9.48;2.83;;;20.80;99.90;;;21.06;67.59;101646.75;4975130;28;20214;-71
2021/08/14 07:12:43;;;;;;;11.38;3.30;;;20.80;99.90;;;21.07;67.43;101653.78;4974773;28;20219;-71
2021/08/14 07:15:11;;;;;;;11.90;3.30;;;20.80;99.90;;;21.10;67.09;101650.91;4975249;28;20214;-74
2021/08/14 07:17:38;;;;;;;11.85;3.00;;;20.90;99.90;;;21.17;67.04;101644.22;4976436;28;20191;-71
2021/08/14 07:20:06;;;;;;;10.45;2.97;;;20.90;99.90;;;21.25;66.34;101641.88;4975426;28;20187;-71
2021/08/14 07:22:32;;;;;;;13.65;3.03;;;21.00;99.90;;;21.29;66.24;101637.22;4975188;28;20219;-71
2021/08/14 07:24:59;;;;;;;11.80;2.90;;;21.10;99.90;;;21.30;66.06;101639.78;4976246;28;20259;-71
2021/08/14 07:27:26;;;;;;;11.13;3.08;;;21.10;99.90;;;21.29;66.23;101646.06;4976196;28;20191;-72
2021/08/14 07:29:54;;;;;;;9.60;2.45;;;21.10;99.90;;;21.29;65.75;101642.53;4974696;28;20196;-72
2021/08/14 07:32:21;;;;;;;9.93;2.55;;;21.00;99.90;;;21.29;65.50;101650.53;4975695;28;20774;-69
2021/08/14 07:34:48;;;;;;;10.13;2.55;;;21.10;99.90;;;21.33;65.07;101642.25;4976134;28;20195;-71
2021/08/14 07:37:14;;;;;;;10.73;2.83;;;21.10;99.90;;;21.41;65.50;101653.25;4976374;28;20657;-72
2021/08/14 07:39:41;;;;;;;11.15;2.70;;;21.20;99.90;;;21.52;64.68;101663.19;4974738;28;20196;-72
2021/08/14 07:42:08;;;;;;;9.23;2.63;;;21.30;99.90;;;21.56;64.61;101651.34;4975765;28;20218;-71
2021/08/14 07:44:35;;;;;;;11.15;3.30;;;21.40;99.90;;;21.64;64.40;101660.53;4975893;28;20254;-72
2021/08/14 07:47:03;;;;;;;9.68;2.90;;;21.40;99.90;;;21.73;64.36;101654.56;4975695;28;20653;-72
2021/08/14 07:49:30;;;;;;;8.77;2.80;;;21.60;99.90;;;21.83;64.01;101647.69;4974600;28;20219;-72
2021/08/14 07:51:56;;;;;;;11.00;3.05;;;21.70;99.90;;;21.88;63.92;101652.69;4975520;28;20207;-71
2021/08/14 07:54:23;;;;;;;11.15;3.20;;;21.70;99.90;;;21.84;63.76;101643.19;4974459;28;20571;-71
2021/08/14 07:56:50;;;;;;;10.52;3.28;;;21.70;99.90;;;21.84;63.74;101646.72;4974565;28;20196;-71
2021/08/14 07:59:17;;;;;;;12.05;2.90;;;21.70;99.90;;;21.87;63.94;101646.50;4975685;28;20203;-72
2021/08/14 08:01:43;;;;;;;9.98;2.80;;;21.80;99.90;;;21.93;63.57;101648.75;4974128;28;20215;-71
2021/08/14 08:04:11;;;;;;;11.48;3.13;;;21.90;99.90;;;22.06;63.31;101641.59;4975837;28;20195;-71
2021/08/14 08:06:38;;;;;;;14.23;3.00;;;22.00;99.90;;;22.18;62.96;101640.72;4975932;28;20194;-71
2021/08/14 08:09:05;;;;;;;10.25;2.80;;;22.20;99.90;;;22.28;62.48;101643.59;4974443;28;20211;-71
2021/08/14 08:11:31;;;;;;;11.32;2.88;;;22.30;99.90;;;22.34;62.17;101641.34;4975184;28;20208;-72
2021/08/14 08:13:58;;;;;;;8.82;2.60;;;22.40;99.90;;;22.38;62.21;101645.50;4975975;28;20195;-73
2021/08/14 08:16:25;;;;;;;9.27;3.05;;;22.50;99.90;;;22.43;62.06;101639.81;4976997;28;20195;-71
2021/08/14 08:18:52;;;;;;;11.45;3.38;;;22.50;99.90;;;22.48;61.76;101628.81;4984576;28;20180;-71
2021/08/14 08:21:20;;;;;;;11.27;3.10;;;22.60;99.90;;;22.57;62.16;101620.19;4989022;28;20216;-72
2021/08/14 08:23:47;;;;;;;10.80;3.38;;;22.70;99.90;;;22.68;61.78;101625.56;4992574;28;20252;-71
2021/08/14 08:26:14;;;;;;;12.15;3.15;;;22.80;99.90;;;22.75;61.57;101625.03;4978645;28;20690;-71
2021/08/14 08:28:41;;;;;;;9.82;2.75;;;22.90;99.90;;;22.78;61.16;101615.94;4974367;28;20219;-72
2021/08/14 08:31:08;;;;;;;8.40;2.70;;;22.90;99.90;;;22.77;60.57;101606.22;4973703;28;21586;-71
2021/08/14 08:33:35;;;;;;;9.75;2.70;;;22.90;99.90;;;22.82;60.98;101606.75;4976863;28;20188;-71
2021/08/14 08:36:01;;;;;;;8.32;2.60;;;22.90;99.90;;;22.87;60.56;101607.25;4976833;28;20599;-73
2021/08/14 08:38:29;;;;;;;9.93;2.78;;;23.00;99.90;;;22.92;60.25;101600.59;4976327;28;20187;-72
2021/08/14 08:40:57;;;;;;;10.02;2.78;;;23.10;99.90;;;22.92;60.03;101603.28;4974573;28;20187;-71
2021/08/14 08:43:23;;;;;;;9.95;2.67;;;23.00;99.90;;;22.89;59.44;101595.47;4975258;28;20183;-72
2021/08/14 08:45:50;;;;;;;10.95;2.50;;;23.00;99.90;;;22.84;59.76;101597.63;4975253;28;20191;-71
2021/08/14 08:48:20;;;;;;;9.77;2.70;;;22.90;99.90;;;22.78;59.53;101591.91;4974896;28;20211;-71
2021/08/14 08:50:48;;;;;;;10.82;2.72;;;22.90;99.90;;;22.80;59.54;101592.63;4973357;28;20286;-72
2021/08/14 08:53:16;;;;;;;12.20;2.80;;;22.90;99.90;;;22.87;59.16;101589.41;4973828;28;20679;-71
2021/08/14 08:55:45;;;;;;;11.13;2.75;;;23.00;99.90;;;22.99;59.38;101587.66;4973539;28;20192;-72
2021/08/14 08:58:12;;;;;;;9.82;2.63;;;23.10;99.90;;;23.07;59.22;101582.56;4974716;28;20195;-72
2021/08/14 09:00:39;;;;;;;11.98;2.95;;;23.20;99.90;;;23.16;59.23;101593.41;4973416;28;20191;-72
2021/08/14 09:03:10;;;;;;;10.25;2.90;;;23.30;99.90;;;23.16;58.25;101596.06;4974894;28;20208;-71
2021/08/14 09:05:48;;;;;;;11.27;2.80;;;23.30;99.90;;;23.14;58.23;101595.34;4973310;28;20195;-71
2021/08/14 09:08:15;;;;;;;8.85;2.75;;;23.20;99.90;;;23.16;57.79;101587.22;4974427;28;20211;-69
2021/08/14 09:10:43;;;;;;;8.77;2.65;;;23.20;99.90;;;23.17;57.88;101570.22;4972929;28;20226;-72
2021/08/14 09:13:12;;;;;;;9.95;2.78;;;23.30;99.90;;;23.23;58.09;101575.94;4973398;28;20712;-72
2021/08/14 09:15:40;;;;;;;11.20;2.72;;;23.30;99.90;;;23.29;56.68;101578.16;4974927;28;20582;-71
2021/08/14 09:18:10;;;;;;;11.32;2.83;;;23.40;99.90;;;23.37;56.34;101580.25;4974577;28;20192;-72
2021/08/14 09:20:52;;;;;;;12.55;3.10;;;23.50;99.90;;;23.48;56.66;101593.66;4972720;28;20690;-68
2021/08/14 09:23:21;;;;;;;9.02;3.10;;;23.60;99.90;;;23.55;56.04;101589.53;4973021;28;20677;-72
2021/08/14 09:25:51;;;;;;;11.45;2.83;;;23.70;99.90;;;23.53;56.13;101583.44;4974424;28;20195;-72
2021/08/14 09:28:29;;;;;;;11.30;2.97;;;23.70;99.90;;;23.42;56.29;101581.63;4973085;28;20745;-72
2021/08/14 09:30:58;;;;;;;10.77;2.80;;;23.60;99.90;;;23.34;56.90;101577.84;4974302;28;20567;-71
2021/08/14 09:33:27;;;;;;;10.57;2.78;;;23.50;99.90;;;23.37;56.82;101564.22;4974184;28;20683;-69
2021/08/14 09:35:57;;;;;;;13.02;2.92;;;23.50;99.90;;;23.45;57.05;101572.50;4972903;28;20271;-72
2021/08/14 09:38:38;;;;;;;10.38;3.03;;;23.60;99.90;;;23.59;56.25;101574.97;4974087;28;20694;-72
2021/08/14 09:41:11;;;;;;;9.43;2.50;;;23.70;99.90;;;23.64;56.37;101574.59;4972851;28;20225;-71
2021/08/14 09:43:38;;;;;;;8.90;2.65;;;23.80;99.90;;;23.59;56.10;101569.63;4972877;28;20195;-69
2021/08/14 09:46:05;;;;;;;10.52;2.60;;;23.70;99.90;;;23.51;56.79;101566.69;4972948;28;20567;-72
2021/08/14 09:48:32;;;;;;;9.52;2.95;;;23.60;99.90;;;23.52;56.62;101568.38;4974202;28;20207;-70
2021/08/14 09:50:59;;;;;;;11.10;2.55;;;23.60;99.90;;;23.60;56.49;101565.97;4972468;28;20201;-72
2021/08/14 09:53:29;;;;;;;10.07;2.90;;;23.70;99.90;;;23.72;55.55;101558.81;4972561;28;20195;-71
2021/08/14 09:56:08;;;;;;;9.77;2.40;;;23.80;99.90;;;23.77;55.08;101562.81;4973955;28;20605;-71
2021/08/14 09:58:36;;;;;;;8.98;2.35;;;23.90;99.90;;;23.72;54.70;101559.66;4974210;28;20246;-72
2021/08/14 10:01:06;;;;;;;10.85;2.70;;;23.80;99.90;;;23.76;54.08;101555.78;4973289;28;20199;-71
2021/08/14 10:03:35;;;;;;;9.45;2.88;;;23.90;99.90;;;23.84;53.68;101557.84;4972751;28;20195;-71
2021/08/14 10:06:02;;;;;;;6.63;2.30;;;23.90;99.90;;;23.90;53.81;101550.19;4972682;28;20191;-71
2021/08/14 10:08:31;;;;;;;8.40;2.47;;;24.00;99.90;;;24.03;53.32;101553.59;4974199;28;20732;-72